Time;durP1;ratioP1;P1;durP2;ratioP2;P2;SDS_P1;SDS_P2;PMS_P1;PMS_P2;Temp;Humidity;BMP_temperature;BMP_pressure;BME280_temperature;BME280_humidity;BME280_pressure;Samples;Min_cycle;Max_cycle;Signal;HPM_P1;HPM_P2
2024/05/07 00:01:58;;;;;;;7.70;5.93;;;13.90;99.90;;;;;;1753340;80;26002;-60
2024/05/07 00:04:25;;;;;;;7.87;7.07;;;13.90;99.90;;;;;;1749770;81;26113;-58
2024/05/07 00:06:53;;;;;;;6.50;5.90;;;13.90;99.90;;;;;;1740566;81;26058;-59
2024/05/07 00:09:20;;;;;;;7.20;6.50;;;13.90;99.90;;;;;;1747448;80;26048;-59
2024/05/07 00:11:48;;;;;;;8.50;7.80;;;13.90;99.90;;;;;;1756400;81;26523;-58
2024/05/07 00:14:15;;;;;;;8.50;7.60;;;13.90;99.90;;;;;;1746799;79;26086;-59
2024/05/07 00:16:43;;;;;;;8.00;7.10;;;13.90;99.90;;;;;;1747518;81;26063;-58
2024/05/07 00:19:11;;;;;;;9.87;9.00;;;13.90;99.90;;;;;;1746769;81;26069;-62
2024/05/07 00:21:39;;;;;;;9.07;8.27;;;13.90;99.90;;;;;;1747158;81;26004;-59
2024/05/07 00:24:07;;;;;;;8.47;7.77;;;13.90;99.90;;;;;;1747374;81;26045;-59
2024/05/07 00:26:34;;;;;;;9.47;8.57;;;13.90;99.90;;;;;;1747551;81;25963;-56
2024/05/07 00:29:02;;;;;;;10.20;9.30;;;13.90;99.90;;;;;;1753517;81;26051;-59
2024/05/07 00:31:29;;;;;;;9.23;8.33;;;13.90;99.90;;;;;;1754093;79;26130;-59
2024/05/07 00:33:57;;;;;;;10.27;9.20;;;13.90;99.90;;;;;;1747322;81;26473;-55
2024/05/07 00:36:24;;;;;;;10.53;9.60;;;14.00;99.90;;;;;;1754276;81;26111;-58
2024/05/07 00:38:52;;;;;;;10.20;9.30;;;14.00;99.90;;;;;;1752451;81;26027;-59
2024/05/07 00:41:20;;;;;;;9.97;9.07;;;14.00;99.90;;;;;;1749207;81;25980;-56
2024/05/07 00:43:47;;;;;;;10.67;9.67;;;14.00;99.90;;;;;;1751564;81;25955;-60
2024/05/07 00:46:15;;;;;;;11.03;9.97;;;14.00;99.90;;;;;;1745859;81;26030;-56
2024/05/07 00:48:43;;;;;;;11.90;10.30;;;14.00;99.90;;;;;;1754131;81;26097;-59
2024/05/07 00:51:11;;;;;;;13.93;12.53;;;14.00;99.90;;;;;;1748737;80;26011;-59
2024/05/07 00:53:38;;;;;;;12.00;11.00;;;13.90;99.90;;;;;;1747558;80;26044;-59
2024/05/07 00:56:06;;;;;;;14.00;12.60;;;13.90;99.90;;;;;;1749269;81;25979;-58
2024/05/07 00:58:36;;;;;;;11.37;10.27;;;13.90;99.90;;;;;;1746040;81;26002;-56
2024/05/07 01:01:06;;;;;;;12.37;11.27;;;13.90;99.90;;;;;;1745071;81;25957;-57
2024/05/07 01:03:33;;;;;;;13.63;12.43;;;14.00;99.90;;;;;;1759356;81;26120;-59
2024/05/07 01:06:00;;;;;;;13.50;12.10;;;13.90;99.90;;;;;;1752320;81;26604;-59
2024/05/07 01:08:28;;;;;;;15.57;13.90;;;13.90;99.90;;;;;;1753870;81;25907;-57
2024/05/07 01:10:55;;;;;;;13.03;11.73;;;13.90;99.90;;;;;;1750105;81;26004;-58
2024/05/07 01:13:27;;;;;;;15.33;13.90;;;13.90;99.90;;;;;;1751240;80;26005;-59
2024/05/07 01:15:55;;;;;;;14.80;13.50;;;13.90;99.90;;;;;;1756851;80;25540;-58
2024/05/07 01:18:22;;;;;;;15.90;14.40;;;13.90;99.90;;;;;;1749195;81;26123;-61
2024/05/07 01:20:50;;;;;;;12.80;11.67;;;13.90;99.90;;;;;;1750563;80;26045;-59
2024/05/07 01:23:17;;;;;;;15.63;14.27;;;13.90;99.90;;;;;;1759610;81;25906;-60
2024/05/07 01:25:46;;;;;;;18.10;16.27;;;13.90;99.90;;;;;;1742756;81;25967;-60
2024/05/07 01:28:14;;;;;;;15.67;14.17;;;14.00;99.90;;;;;;1750554;81;26540;-61
2024/05/07 01:30:41;;;;;;;16.20;14.60;;;14.00;99.90;;;;;;1744149;81;26061;-59
2024/05/07 01:33:09;;;;;;;17.57;15.83;;;14.00;99.90;;;;;;1747357;81;26031;-58
2024/05/07 01:35:36;;;;;;;17.40;15.70;;;14.00;99.90;;;;;;1754002;81;26370;-60
2024/05/07 01:38:04;;;;;;;20.63;18.60;;;14.00;99.90;;;;;;1756581;80;25853;-59
2024/05/07 01:40:32;;;;;;;17.57;15.77;;;14.00;99.90;;;;;;1751361;81;26058;-55
2024/05/07 01:42:59;;;;;;;24.27;21.73;;;14.00;99.90;;;;;;1760986;80;26484;-58
2024/05/07 01:45:27;;;;;;;20.77;18.83;;;14.00;99.90;;;;;;1746215;81;26061;-60
2024/05/07 01:47:54;;;;;;;26.00;23.30;;;13.90;99.90;;;;;;1744875;81;26033;-58
2024/05/07 01:50:22;;;;;;;31.60;28.50;;;13.90;99.90;;;;;;1746702;81;26577;-57
2024/05/07 01:52:50;;;;;;;34.53;31.07;;;13.90;99.90;;;;;;1750823;81;26019;-58
2024/05/07 01:55:17;;;;;;;30.43;27.37;;;14.00;99.90;;;;;;1749061;80;26554;-59
2024/05/07 01:57:46;;;;;;;34.03;30.77;;;13.90;99.90;;;;;;1750220;81;26044;-57
2024/05/07 02:00:14;;;;;;;40.63;36.60;;;13.90;99.90;;;;;;1747902;81;25898;-59
2024/05/07 02:02:42;;;;;;;40.70;36.67;;;13.90;99.90;;;;;;1745800;81;25992;-58
2024/05/07 02:05:10;;;;;;;43.10;38.90;;;14.00;99.90;;;;;;1748896;81;26162;-56
2024/05/07 02:07:37;;;;;;;47.97;43.17;;;14.00;99.90;;;;;;1748807;81;26388;-57
2024/05/07 02:10:05;;;;;;;48.20;43.50;;;14.00;99.90;;;;;;1747403;81;26092;-58
2024/05/07 02:12:33;;;;;;;48.40;43.77;;;14.00;99.90;;;;;;1746953;81;26764;-59
2024/05/07 02:15:00;;;;;;;49.73;44.67;;;13.90;99.90;;;;;;1746777;81;26012;-57
2024/05/07 02:17:27;;;;;;;48.33;43.83;;;14.00;99.90;;;;;;1752985;80;26016;-59
2024/05/07 02:19:55;;;;;;;50.10;45.20;;;13.90;99.90;;;;;;1760610;81;26013;-59
2024/05/07 02:22:23;;;;;;;49.20;44.40;;;13.90;99.90;;;;;;1749340;81;26031;-60
2024/05/07 02:24:51;;;;;;;46.87;42.03;;;13.90;99.90;;;;;;1746751;81;26604;-58
2024/05/07 02:27:18;;;;;;;51.20;46.20;;;13.90;99.90;;;;;;1748008;81;26000;-56
2024/05/07 02:29:46;;;;;;;49.97;45.03;;;13.90;99.90;;;;;;1746242;81;26128;-59
2024/05/07 02:32:13;;;;;;;50.60;45.40;;;13.90;99.90;;;;;;1756056;81;26074;-59
2024/05/07 02:34:41;;;;;;;53.60;47.70;;;13.90;99.90;;;;;;1748335;80;26094;-59
2024/05/07 02:37:08;;;;;;;51.47;46.23;;;13.90;99.90;;;;;;1754244;80;26543;-57
2024/05/07 02:39:36;;;;;;;48.97;44.33;;;13.90;99.90;;;;;;1753574;81;26062;-57
2024/05/07 02:42:04;;;;;;;50.30;45.40;;;13.90;99.90;;;;;;1745486;81;26092;-60
2024/05/07 02:44:33;;;;;;;48.70;43.97;;;13.90;99.90;;;;;;1748626;81;26090;-58
2024/05/07 02:47:01;;;;;;;55.73;50.43;;;13.90;99.90;;;;;;1751536;81;26033;-58
2024/05/07 02:49:28;;;;;;;49.80;44.97;;;13.90;99.90;;;;;;1745235;81;26109;-59
2024/05/07 02:51:55;;;;;;;47.03;42.40;;;13.80;99.90;;;;;;1745962;81;26096;-59
2024/05/07 02:54:23;;;;;;;53.23;47.57;;;13.80;99.90;;;;;;1747423;80;26146;-58
2024/05/07 02:56:50;;;;;;;53.57;48.30;;;13.80;99.90;;;;;;1757706;81;26027;-60
2024/05/07 02:59:18;;;;;;;50.80;46.10;;;13.80;99.90;;;;;;1745987;81;26522;-59
2024/05/07 03:01:45;;;;;;;55.60;50.07;;;13.90;99.90;;;;;;1747250;81;26009;-58
2024/05/07 03:04:13;;;;;;;46.90;42.40;;;13.80;99.90;;;;;;1763723;81;26085;-60
2024/05/07 03:06:43;;;;;;;47.40;42.97;;;13.80;99.90;;;;;;1742001;81;26062;-58
2024/05/07 03:09:14;;;;;;;47.80;43.27;;;13.80;99.90;;;;;;1751471;81;26081;-60
2024/05/07 03:11:41;;;;;;;50.10;45.60;;;13.80;99.90;;;;;;1747822;81;26020;-59
2024/05/07 03:14:09;;;;;;;48.57;43.70;;;13.80;99.90;;;;;;1752442;81;26000;-57
2024/05/07 03:16:40;;;;;;;47.17;42.67;;;13.80;99.90;;;;;;1748230;81;26055;-56
2024/05/07 03:19:11;;;;;;;43.43;39.17;;;13.80;99.90;;;;;;1769432;79;26011;-59
2024/05/07 03:21:42;;;;;;;49.70;44.67;;;13.80;99.90;;;;;;1760457;81;26487;-60
2024/05/07 03:24:10;;;;;;;47.20;42.67;;;13.80;99.90;;;;;;1751315;80;26081;-58
2024/05/07 03:26:38;;;;;;;51.60;46.30;;;13.80;99.90;;;;;;1744799;81;26583;-59
2024/05/07 03:29:07;;;;;;;48.00;43.10;;;13.70;99.90;;;;;;1746711;81;26027;-59
2024/05/07 03:31:35;;;;;;;53.00;47.63;;;13.70;99.90;;;;;;1748102;81;26058;-60
2024/05/07 03:34:02;;;;;;;47.57;43.00;;;13.70;99.90;;;;;;1748992;80;26077;-61
2024/05/07 03:36:30;;;;;;;46.90;42.57;;;13.60;99.90;;;;;;1756670;81;25941;-59
2024/05/07 03:38:58;;;;;;;44.40;40.17;;;13.60;99.90;;;;;;1758672;81;25919;-60
2024/05/07 03:41:25;;;;;;;51.47;46.53;;;13.70;99.90;;;;;;1750612;80;26078;-59
2024/05/07 03:43:53;;;;;;;53.33;48.27;;;13.70;99.90;;;;;;1749400;80;26079;-60
2024/05/07 03:46:20;;;;;;;47.10;42.63;;;13.70;99.90;;;;;;1750295;79;26408;-57
2024/05/07 03:48:48;;;;;;;48.40;43.70;;;13.70;99.90;;;;;;1745858;81;26139;-59
2024/05/07 03:51:15;;;;;;;45.80;41.43;;;13.80;99.90;;;;;;1747025;81;26056;-59
2024/05/07 03:53:43;;;;;;;47.20;42.60;;;13.80;99.90;;;;;;1750779;80;26106;-58
2024/05/07 03:56:12;;;;;;;54.27;48.63;;;13.70;99.90;;;;;;1750840;81;26018;-60
2024/05/07 03:58:41;;;;;;;51.30;46.23;;;13.70;99.90;;;;;;1749632;80;26076;-57
2024/05/07 04:01:08;;;;;;;49.33;44.40;;;13.70;99.90;;;;;;1759415;81;26017;-58
2024/05/07 04:03:36;;;;;;;50.10;45.13;;;13.70;99.90;;;;;;1755555;79;26015;-61
2024/05/07 04:06:03;;;;;;;51.00;45.90;;;13.80;99.90;;;;;;1745019;81;26023;-57
2024/05/07 04:08:31;;;;;;;50.00;44.83;;;13.70;99.90;;;;;;1746849;81;26180;-59
2024/05/07 04:10:58;;;;;;;50.30;45.50;;;13.70;99.90;;;;;;1752449;81;26562;-62
2024/05/07 04:13:26;;;;;;;42.87;38.67;;;13.70;99.90;;;;;;1752375;81;26111;-59
2024/05/07 04:15:53;;;;;;;55.63;49.83;;;13.70;99.90;;;;;;1755751;80;26032;-58
2024/05/07 04:18:21;;;;;;;52.53;47.17;;;13.70;99.90;;;;;;1754716;81;26414;-58
2024/05/07 04:20:48;;;;;;;53.93;48.37;;;13.70;99.90;;;;;;1746508;81;26017;-59
2024/05/07 04:23:16;;;;;;;52.43;47.13;;;13.70;99.90;;;;;;1747956;80;25905;-59
2024/05/07 04:25:43;;;;;;;54.13;48.53;;;13.70;99.90;;;;;;1748423;80;26048;-59
2024/05/07 04:28:11;;;;;;;51.97;46.57;;;13.70;99.90;;;;;;1744673;81;26100;-59
2024/05/07 04:30:39;;;;;;;51.57;46.20;;;13.70;99.90;;;;;;1750939;81;25967;-57
2024/05/07 04:33:12;;;;;;;50.90;45.80;;;13.80;99.90;;;;;;1751920;80;26799;-56
2024/05/07 04:35:40;;;;;;;47.37;42.77;;;13.70;99.90;;;;;;1744199;80;26059;-57
2024/05/07 04:38:11;;;;;;;52.00;46.90;;;13.80;99.90;;;;;;1756251;81;26465;-59
2024/05/07 04:40:39;;;;;;;48.63;43.53;;;13.80;99.90;;;;;;1745775;81;26582;-58
2024/05/07 04:43:10;;;;;;;46.60;41.97;;;13.80;99.90;;;;;;1747533;81;26089;-58
2024/05/07 04:45:38;;;;;;;46.47;41.67;;;13.80;99.90;;;;;;1747469;80;26116;-60
2024/05/07 04:48:07;;;;;;;51.43;45.83;;;13.80;99.90;;;;;;1751348;80;25505;-59
2024/05/07 04:50:34;;;;;;;51.33;45.90;;;13.80;99.90;;;;;;1744458;81;25965;-59
2024/05/07 04:53:02;;;;;;;49.97;44.70;;;13.80;99.90;;;;;;1750043;81;26507;-59
2024/05/07 04:55:29;;;;;;;48.20;43.50;;;13.80;99.90;;;;;;1747253;81;26145;-57
2024/05/07 04:57:57;;;;;;;50.43;45.33;;;13.70;99.90;;;;;;1744531;81;25976;-55
2024/05/07 05:00:24;;;;;;;48.83;44.03;;;13.80;99.90;;;;;;1750404;80;25963;-61
2024/05/07 05:02:52;;;;;;;50.67;45.77;;;13.80;99.90;;;;;;1763172;81;25634;-58
2024/05/07 05:05:19;;;;;;;40.40;36.60;;;13.80;99.90;;;;;;1751976;79;26076;-61
2024/05/07 05:07:47;;;;;;;47.20;42.27;;;13.80;99.90;;;;;;1746971;81;26138;-57
2024/05/07 05:10:14;;;;;;;44.73;40.03;;;13.90;99.90;;;;;;1750868;81;26484;-58
2024/05/07 05:12:42;;;;;;;42.17;38.10;;;13.90;99.90;;;;;;1742513;81;26147;-57
2024/05/07 05:15:09;;;;;;;43.80;39.60;;;14.00;99.90;;;;;;1742784;81;25999;-55
2024/05/07 05:17:37;;;;;;;43.00;38.90;;;14.00;99.90;;;;;;1745885;81;26088;-58
2024/05/07 05:20:05;;;;;;;41.10;37.27;;;14.00;99.90;;;;;;1749272;81;26118;-58
2024/05/07 05:22:33;;;;;;;40.30;36.57;;;14.00;99.90;;;;;;1745587;81;26073;-57
2024/05/07 05:25:00;;;;;;;42.30;38.20;;;14.10;99.90;;;;;;1751561;80;26898;-59
2024/05/07 05:27:28;;;;;;;40.83;36.83;;;14.10;99.90;;;;;;1750368;81;26121;-58
2024/05/07 05:29:55;;;;;;;38.40;34.60;;;14.10;99.90;;;;;;1740282;80;25606;-60
2024/05/07 05:32:23;;;;;;;36.60;33.20;;;14.10;99.90;;;;;;1751256;81;26000;-61
2024/05/07 05:34:50;;;;;;;41.50;37.60;;;14.20;99.90;;;;;;1747976;80;26673;-59
2024/05/07 05:37:18;;;;;;;39.67;35.60;;;14.20;99.90;;;;;;1756541;81;25999;-61
2024/05/07 05:39:45;;;;;;;38.37;34.90;;;14.10;99.90;;;;;;1753523;81;25986;-60
2024/05/07 05:42:13;;;;;;;35.17;31.80;;;14.10;99.90;;;;;;1755407;81;27108;-61
2024/05/07 05:44:45;;;;;;;36.30;32.87;;;14.10;99.90;;;;;;1749704;80;26152;-58
2024/05/07 05:47:12;;;;;;;33.70;30.73;;;14.10;99.90;;;;;;1752206;81;26117;-60
2024/05/07 05:49:40;;;;;;;37.37;33.87;;;14.10;99.90;;;;;;1741175;81;26606;-59
2024/05/07 05:52:07;;;;;;;35.17;31.97;;;14.00;99.90;;;;;;1752986;81;25957;-60
2024/05/07 05:54:35;;;;;;;36.90;33.47;;;14.00;99.90;;;;;;1752863;80;26040;-60
2024/05/07 05:57:03;;;;;;;36.83;33.33;;;14.00;99.90;;;;;;1750178;81;25998;-60
2024/05/07 05:59:30;;;;;;;40.90;37.03;;;14.00;99.90;;;;;;1751997;81;26111;-59
2024/05/07 06:01:58;;;;;;;38.53;34.53;;;14.00;99.90;;;;;;1747565;80;26057;-59
2024/05/07 06:04:25;;;;;;;36.53;33.43;;;14.10;99.90;;;;;;1749662;81;26577;-61
2024/05/07 06:06:53;;;;;;;40.17;36.50;;;14.10;99.90;;;;;;1745109;81;26072;-60
2024/05/07 06:09:20;;;;;;;42.03;38.07;;;14.20;99.90;;;;;;1745581;81;26105;-60
2024/05/07 06:11:48;;;;;;;41.93;37.93;;;14.20;99.90;;;;;;1748504;81;26587;-60
2024/05/07 06:14:15;;;;;;;44.83;40.83;;;14.30;99.90;;;;;;1744700;80;26013;-59
2024/05/07 06:16:43;;;;;;;43.87;39.77;;;14.30;99.90;;;;;;1746993;81;26299;-61
2024/05/07 06:19:10;;;;;;;37.77;34.27;;;14.30;99.90;;;;;;1749183;81;26537;-57
2024/05/07 06:21:38;;;;;;;41.10;37.37;;;14.40;99.90;;;;;;1748901;81;25999;-61
2024/05/07 06:24:05;;;;;;;41.13;37.33;;;14.40;99.90;;;;;;1749148;80;25997;-61
2024/05/07 06:26:33;;;;;;;36.17;33.07;;;14.40;99.90;;;;;;1748110;81;26072;-60
2024/05/07 06:29:01;;;;;;;38.10;34.57;;;14.50;99.90;;;;;;1755117;80;26085;-60
2024/05/07 06:31:29;;;;;;;34.00;30.90;;;14.60;99.90;;;;;;1742880;81;25225;-59
2024/05/07 06:33:59;;;;;;;36.63;33.63;;;14.60;99.90;;;;;;1741990;81;25983;-58
2024/05/07 06:36:26;;;;;;;34.53;31.43;;;14.60;99.90;;;;;;1746133;81;26498;-60
2024/05/07 06:38:54;;;;;;;37.10;33.70;;;14.60;99.90;;;;;;1757623;81;26003;-60
2024/05/07 06:41:21;;;;;;;36.97;33.80;;;14.60;99.90;;;;;;1746900;81;25979;-61
2024/05/07 06:43:49;;;;;;;38.27;34.90;;;14.60;99.90;;;;;;1754887;80;26525;-60
2024/05/07 06:46:16;;;;;;;41.70;37.97;;;14.60;99.90;;;;;;1752579;81;26029;-60
2024/05/07 06:48:44;;;;;;;37.73;34.37;;;14.60;99.90;;;;;;1748354;81;25984;-59
2024/05/07 06:51:12;;;;;;;34.80;31.90;;;14.60;99.90;;;;;;1747307;81;26124;-60
2024/05/07 06:53:40;;;;;;;35.63;32.57;;;14.70;99.90;;;;;;1750766;81;25920;-60
2024/05/07 06:56:07;;;;;;;36.93;33.67;;;14.80;99.90;;;;;;1749772;80;26085;-61
2024/05/07 06:58:35;;;;;;;37.97;34.40;;;14.90;99.90;;;;;;1744058;81;26022;-62
2024/05/07 07:01:02;;;;;;;34.43;31.63;;;15.00;99.90;;;;;;1749256;81;26100;-61
2024/05/07 07:03:30;;;;;;;35.93;32.77;;;15.10;99.90;;;;;;1753431;80;26036;-60
2024/05/07 07:05:58;;;;;;;35.60;32.33;;;15.00;99.90;;;;;;1742281;81;26392;-62
2024/05/07 07:08:25;;;;;;;36.27;32.97;;;15.00;99.90;;;;;;1747513;81;26057;-60
2024/05/07 07:10:53;;;;;;;35.07;31.97;;;15.00;99.90;;;;;;1746502;80;26574;-58
2024/05/07 07:13:20;;;;;;;36.57;33.27;;;15.00;99.90;;;;;;1752981;81;26025;-62
2024/05/07 07:15:48;;;;;;;37.67;34.37;;;15.00;99.90;;;;;;1760178;80;25994;-61
2024/05/07 07:18:16;;;;;;;36.33;33.43;;;15.00;99.90;;;;;;1748744;81;26145;-59
2024/05/07 07:20:43;;;;;;;33.63;30.73;;;15.10;99.90;;;;;;1745700;81;26122;-58
2024/05/07 07:23:11;;;;;;;35.00;32.03;;;15.20;99.90;;;;;;1749916;81;26583;-59
2024/05/07 07:25:39;;;;;;;31.33;28.70;;;15.10;99.90;;;;;;1745432;80;26134;-58
2024/05/07 07:28:07;;;;;;;33.83;31.03;;;15.30;99.90;;;;;;1741497;81;26098;-61
2024/05/07 07:30:34;;;;;;;31.60;29.00;;;15.30;99.90;;;;;;1748850;81;26509;-60
2024/05/07 07:33:02;;;;;;;32.37;29.47;;;15.30;99.90;;;;;;1748199;81;26471;-60
2024/05/07 07:35:30;;;;;;;34.27;31.47;;;15.50;99.90;;;;;;1728215;79;26111;-57
2024/05/07 07:37:58;;;;;;;30.80;28.30;;;15.60;99.90;;;;;;1738924;81;26532;-60
2024/05/07 07:40:25;;;;;;;32.67;30.07;;;15.70;99.90;;;;;;1736294;81;26148;-59
2024/05/07 07:42:53;;;;;;;29.00;26.77;;;15.70;99.90;;;;;;1746913;81;26124;-60
2024/05/07 07:45:20;;;;;;;30.40;27.90;;;15.80;99.90;;;;;;1738249;81;26666;-59
2024/05/07 07:47:48;;;;;;;31.10;28.67;;;16.10;99.90;;;;;;1738323;81;26025;-60
2024/05/07 07:50:15;;;;;;;32.60;30.10;;;16.20;99.90;;;;;;1738862;81;26010;-61
2024/05/07 07:52:43;;;;;;;31.73;29.33;;;16.50;99.90;;;;;;1750142;81;26622;-61
2024/05/07 07:55:10;;;;;;;29.37;27.00;;;16.70;99.90;;;;;;1732564;79;26146;-61
2024/05/07 07:57:38;;;;;;;29.47;27.10;;;16.80;99.90;;;;;;1736802;80;26089;-61
2024/05/07 08:00:06;;;;;;;28.37;26.17;;;17.10;99.90;;;;;;1735870;81;26079;-59
2024/05/07 08:02:34;;;;;;;28.93;26.43;;;17.30;99.90;;;;;;1744248;81;26025;-58
2024/05/07 08:05:01;;;;;;;27.97;25.80;;;17.50;99.90;;;;;;1749156;79;26109;-61
2024/05/07 08:07:29;;;;;;;26.47;24.53;;;17.70;99.90;;;;;;1748710;81;26075;-60
2024/05/07 08:09:56;;;;;;;27.43;25.33;;;17.90;99.90;;;;;;1755856;80;26014;-59
2024/05/07 08:12:24;;;;;;;27.60;25.40;;;18.10;99.90;;;;;;1748121;81;26061;-60
2024/05/07 08:14:51;;;;;;;27.50;25.27;;;18.30;99.90;;;;;;1741728;81;25956;-60
2024/05/07 08:17:19;;;;;;;29.40;27.17;;;18.50;99.90;;;;;;1744455;81;27155;-63
2024/05/07 08:19:48;;;;;;;26.50;24.37;;;18.50;98.10;;;;;;1752142;81;26029;-61
2024/05/07 08:22:15;;;;;;;27.50;25.30;;;18.20;99.60;;;;;;1744059;81;25986;-61
2024/05/07 08:24:43;;;;;;;29.70;27.07;;;18.10;99.10;;;;;;1754888;80;26548;-60
2024/05/07 08:27:10;;;;;;;29.63;27.30;;;17.90;99.90;;;;;;1754752;80;26025;-60
2024/05/07 08:29:38;;;;;;;29.47;27.00;;;17.60;99.80;;;;;;1753064;81;26028;-60
2024/05/07 08:32:05;;;;;;;29.73;27.50;;;17.40;99.90;;;;;;1744800;81;26530;-61
2024/05/07 08:34:33;;;;;;;29.17;26.77;;;17.30;99.90;;;;;;1744424;80;26126;-61
2024/05/07 08:37:00;;;;;;;27.10;25.00;;;17.10;99.90;;;;;;1743063;81;26014;-60
2024/05/07 08:39:28;;;;;;;32.23;29.70;;;17.10;99.90;;;;;;1749079;81;26228;-62
2024/05/07 08:41:55;;;;;;;26.90;24.80;;;17.10;99.90;;;;;;1754157;80;26460;-61
2024/05/07 08:44:22;;;;;;;29.23;26.83;;;17.10;99.90;;;;;;1747289;79;26080;-60
2024/05/07 08:46:51;;;;;;;25.83;23.90;;;17.10;99.90;;;;;;1748069;81;26026;-60
2024/05/07 08:49:21;;;;;;;25.70;23.70;;;17.40;99.90;;;;;;1744157;81;26040;-59
2024/05/07 08:51:51;;;;;;;26.83;24.63;;;17.50;99.90;;;;;;1755149;81;26559;-60
2024/05/07 08:54:23;;;;;;;25.90;23.70;;;17.70;99.90;;;;;;1752200;80;26011;-62
2024/05/07 08:56:51;;;;;;;28.47;26.17;;;17.90;99.90;;;;;;1749279;81;25991;-61
2024/05/07 08:59:18;;;;;;;27.60;25.50;;;17.90;99.10;;;;;;1748445;81;26059;-60
2024/05/07 09:01:46;;;;;;;25.47;23.57;;;18.00;98.60;;;;;;1751533;81;26503;-61
2024/05/07 09:04:24;;;;;;;26.60;24.43;;;18.00;99.60;;;;;;1752917;81;26185;-59
2024/05/07 09:06:52;;;;;;;25.87;23.63;;;18.10;99.50;;;;;;1749689;80;26558;-61
2024/05/07 09:09:20;;;;;;;23.83;21.90;;;18.00;99.20;;;;;;1751550;81;25939;-61
2024/05/07 09:11:52;;;;;;;26.17;24.17;;;17.90;99.20;;;;;;1745137;79;27001;-61
2024/05/07 09:14:20;;;;;;;28.30;26.03;;;17.70;99.40;;;;;;1745574;81;26040;-61
2024/05/07 09:16:47;;;;;;;26.90;24.70;;;17.40;98.80;;;;;;1745812;81;26070;-60
2024/05/07 09:19:15;;;;;;;26.63;24.43;;;17.20;99.00;;;;;;1745936;81;26090;-60
2024/05/07 09:21:43;;;;;;;25.40;23.40;;;17.30;99.90;;;;;;1747435;81;27013;-61
2024/05/07 09:24:11;;;;;;;24.47;22.57;;;17.40;99.90;;;;;;1753529;80;27107;-62
2024/05/07 09:26:46;;;;;;;25.17;23.17;;;17.50;99.80;;;;;;1751873;81;26522;-61
2024/05/07 09:29:14;;;;;;;25.67;23.67;;;17.60;98.90;;;;;;1740420;81;26439;-60
2024/05/07 09:31:44;;;;;;;27.00;24.83;;;17.70;98.60;;;;;;1747258;81;25980;-59
2024/05/07 09:34:16;;;;;;;24.60;22.80;;;17.90;98.30;;;;;;1744992;81;26043;-62
2024/05/07 09:36:51;;;;;;;25.13;23.30;;;18.10;98.50;;;;;;1745198;81;26017;-60
2024/05/07 09:39:26;;;;;;;25.17;23.07;;;18.10;97.10;;;;;;1756896;81;25969;-61
2024/05/07 09:41:59;;;;;;;25.37;23.47;;;18.30;97.40;;;;;;1751948;81;26045;-61
2024/05/07 09:44:35;;;;;;;25.37;23.27;;;18.30;97.20;;;;;;1748581;81;26030;-61
2024/05/07 09:47:07;;;;;;;25.63;23.53;;;18.50;97.40;;;;;;1749823;80;26053;-61
2024/05/07 09:49:37;;;;;;;23.57;21.73;;;18.50;96.60;;;;;;1743555;81;26135;-60
2024/05/07 09:52:05;;;;;;;25.70;23.70;;;18.60;97.50;;;;;;1754420;81;26038;-61
2024/05/07 09:54:33;;;;;;;24.80;22.67;;;18.70;97.00;;;;;;1752513;81;25517;-60
2024/05/07 09:57:01;;;;;;;24.40;22.50;;;18.60;95.80;;;;;;1745388;81;26111;-61
2024/05/07 09:59:29;;;;;;;24.13;22.30;;;18.60;96.50;;;;;;1751876;81;26037;-61
2024/05/07 10:01:57;;;;;;;23.47;21.67;;;18.80;96.80;;;;;;1751498;81;26690;-62
2024/05/07 10:04:24;;;;;;;22.03;20.03;;;18.70;96.10;;;;;;1747233;80;26516;-61
2024/05/07 10:06:56;;;;;;;22.00;20.20;;;18.70;96.50;;;;;;1745203;81;26526;-61
2024/05/07 10:09:24;;;;;;;19.43;17.73;;;18.50;95.10;;;;;;1754732;81;25926;-61
2024/05/07 10:11:57;;;;;;;21.50;19.77;;;18.60;95.60;;;;;;1749897;81;26109;-61
2024/05/07 10:14:31;;;;;;;19.63;18.03;;;18.60;96.20;;;;;;1749378;79;26598;-60
2024/05/07 10:17:03;;;;;;;21.10;19.60;;;18.80;95.80;;;;;;1750535;81;26472;-60
2024/05/07 10:19:30;;;;;;;20.60;19.10;;;19.00;95.40;;;;;;1745304;81;26105;-59
2024/05/07 10:22:00;;;;;;;20.20;18.57;;;19.00;94.90;;;;;;1739802;80;26009;-62
2024/05/07 10:24:27;;;;;;;20.57;19.07;;;19.20;95.50;;;;;;1749007;80;25895;-63
2024/05/07 10:27:06;;;;;;;20.40;18.90;;;19.30;90.50;;;;;;1748447;80;25935;-60
2024/05/07 10:29:38;;;;;;;19.47;18.07;;;19.40;94.30;;;;;;1749908;81;26171;-62
2024/05/07 10:32:07;;;;;;;19.33;17.83;;;19.40;93.40;;;;;;1745287;81;26379;-62
2024/05/07 10:34:39;;;;;;;19.87;18.37;;;19.60;94.00;;;;;;1743143;81;26687;-61
2024/05/07 10:37:06;;;;;;;18.73;17.33;;;19.40;94.30;;;;;;1744207;81;27080;-63
2024/05/07 10:39:57;;;;;;;20.87;19.17;;;19.40;93.80;;;;;;1747025;81;26527;-61
2024/05/07 10:42:25;;;;;;;20.70;19.10;;;19.20;94.00;;;;;;1796700;78;25900;-62
2024/05/07 10:44:56;;;;;;;19.17;17.57;;;19.20;94.50;;;;;;1797065;78;25740;-60
2024/05/07 10:47:23;;;;;;;17.70;16.30;;;19.10;95.30;;;;;;1805186;78;26272;-58
2024/05/07 10:50:00;;;;;;;14.97;13.87;;;19.10;95.90;;;;;;1789186;78;26352;-61
2024/05/07 10:52:33;;;;;;;16.07;14.87;;;19.00;95.80;;;;;;1792592;78;25885;-59
2024/05/07 10:54:59;;;;;;;17.33;16.03;;;18.90;94.80;;;;;;1790233;78;26065;-61
2024/05/07 10:57:28;;;;;;;17.20;15.80;;;18.50;93.30;;;;;;1787299;78;26023;-61
2024/05/07 10:59:57;;;;;;;18.67;17.17;;;18.60;93.80;;;;;;1794896;78;25674;-62
2024/05/07 11:02:29;;;;;;;19.07;17.60;;;18.70;95.20;;;;;;1805804;78;25921;-61
2024/05/07 11:05:00;;;;;;;17.60;16.17;;;18.70;93.60;;;;;;1787735;78;26521;-61
2024/05/07 11:07:29;;;;;;;19.90;18.10;;;18.50;92.70;;;;;;1785976;78;26463;-62
2024/05/07 11:10:01;;;;;;;18.70;16.90;;;18.50;93.20;;;;;;1788488;78;25916;-61
2024/05/07 11:12:29;;;;;;;16.57;15.27;;;18.30;93.50;;;;;;1797755;78;26418;-62
2024/05/07 11:14:58;;;;;;;16.00;14.87;;;18.40;94.20;;;;;;1800969;78;26052;-61
2024/05/07 11:17:26;;;;;;;18.23;16.57;;;18.50;93.90;;;;;;1814154;78;25891;-62
2024/05/07 11:20:09;;;;;;;18.77;17.33;;;18.60;94.00;;;;;;1799789;78;25972;-61
2024/05/07 11:22:48;;;;;;;17.93;16.50;;;18.70;93.70;;;;;;1812933;78;26040;-61
2024/05/07 11:25:15;;;;;;;16.03;14.73;;;18.80;92.90;;;;;;1800138;77;25980;-61
2024/05/07 11:27:43;;;;;;;15.70;14.50;;;18.90;93.40;;;;;;1804931;78;25893;-62
2024/05/07 11:30:19;;;;;;;16.83;15.43;;;19.10;92.40;;;;;;1789253;78;26399;-60
2024/05/07 11:32:51;;;;;;;18.43;16.80;;;19.20;91.60;;;;;;1804315;78;26406;-60
2024/05/07 11:35:18;;;;;;;18.23;16.63;;;19.20;91.50;;;;;;1810423;78;25960;-59
2024/05/07 11:37:46;;;;;;;16.17;14.93;;;19.10;90.70;;;;;;1791668;78;26311;-62
2024/05/07 11:40:13;;;;;;;14.20;13.00;;;19.20;91.90;;;;;;1784884;78;26481;-61
2024/05/07 11:42:41;;;;;;;14.47;13.30;;;19.30;92.40;;;;;;1813648;78;26883;-62
2024/05/07 11:45:09;;;;;;;12.63;11.67;;;19.40;91.00;;;;;;1804702;78;25979;-61
2024/05/07 11:47:37;;;;;;;12.67;11.73;;;19.40;90.60;;;;;;1813988;78;25980;-62
2024/05/07 11:50:06;;;;;;;11.63;10.73;;;19.50;90.60;;;;;;1799251;78;25946;-62
2024/05/07 11:52:34;;;;;;;11.37;9.43;;;19.60;90.20;;;;;;1810110;78;26067;-61
2024/05/07 11:55:02;;;;;;;10.50;9.70;;;19.80;90.80;;;;;;1793459;78;25602;-61
2024/05/07 11:57:30;;;;;;;10.37;9.47;;;19.90;89.70;;;;;;1811642;77;27103;-61
2024/05/07 11:59:58;;;;;;;9.67;8.87;;;20.10;89.90;;;;;;1798073;78;26046;-61
2024/05/07 12:02:25;;;;;;;10.87;9.93;;;20.40;88.00;;;;;;1808059;78;26505;-62
2024/05/07 12:04:53;;;;;;;9.77;9.07;;;20.50;84.30;;;;;;1804423;78;26007;-60
2024/05/07 12:07:20;;;;;;;10.77;9.70;;;20.90;84.90;;;;;;1807229;78;25895;-60
2024/05/07 12:09:48;;;;;;;9.57;8.70;;;21.00;83.60;;;;;;1793404;78;25903;-62
2024/05/07 12:12:15;;;;;;;9.97;9.27;;;21.20;84.50;;;;;;1800735;78;26154;-62
2024/05/07 12:14:43;;;;;;;10.07;9.17;;;21.30;78.10;;;;;;1800824;78;25942;-62
2024/05/07 12:17:11;;;;;;;9.33;8.50;;;21.40;79.50;;;;;;1819427;77;26132;-62
2024/05/07 12:19:38;;;;;;;9.47;8.67;;;21.50;84.00;;;;;;1814205;78;25911;-62
2024/05/07 12:27:37;;;;;;;9.20;8.50;;;21.20;70.90;;;;;;1808187;78;26004;-61
2024/05/07 12:30:05;;;;;;;7.60;6.83;;;21.10;72.70;;;;;;1811355;78;26563;-61
2024/05/07 12:32:32;;;;;;;7.10;6.50;;;21.40;73.60;;;;;;1788768;78;25900;-62
2024/05/07 12:35:00;;;;;;;7.10;5.93;;;21.50;75.50;;;;;;1794572;78;25934;-60
2024/05/07 12:37:28;;;;;;;7.57;6.27;;;22.00;77.90;;;;;;1800593;78;26398;-60
2024/05/07 12:39:55;;;;;;;10.07;6.30;;;22.20;75.50;;;;;;1797257;78;26427;-62